Time;durP1;ratioP1;P1;durP2;ratioP2;P2;SDS_P1;SDS_P2;PMS_P1;PMS_P2;Temp;Humidity;BMP_temperature;BMP_pressure;BME280_temperature;BME280_humidity;BME280_pressure;Samples;Min_cycle;Max_cycle;Signal;HPM_P1;HPM_P2
2022/08/23 10:43:21;;;;;;;5.80;1.00;;;;;;;;;;5033700;28;20578;-82
2022/08/23 10:45:48;;;;;;;1.40;0.70;;;;;;;;;;5015111;28;20543;-84
2022/08/23 10:48:27;;;;;;;2.15;0.63;;;;;;;;;;5016839;28;20564;-83
2022/08/23 10:50:57;;;;;;;0.70;0.52;;;;;;;;;;5017064;28;20049;-84
2022/08/23 10:53:30;;;;;;;0.98;0.68;;;;;;;;;;5015059;28;20085;-83
2022/08/23 10:56:12;;;;;;;0.55;0.55;;;;;;;;;;5015418;28;20081;-82
2022/08/23 10:58:39;;;;;;;2.33;0.82;;;;;;;;;;5015900;28;20591;-83
2022/08/23 11:01:07;;;;;;;2.90;0.80;;;;;;;;;;5014489;28;20045;-83
2022/08/23 11:03:41;;;;;;;1.30;0.70;;;;;;;;;;5014289;28;20073;-83
2022/08/23 11:06:26;;;;;;;1.50;0.80;;;;;;;;;;5013845;28;20104;-82
2022/08/23 11:08:58;;;;;;;1.30;0.70;;;;;;;;;;5012490;28;20432;-83
2022/08/23 11:11:35;;;;;;;2.15;0.80;;;;;;;;;;5013806;28;20085;-84
2022/08/23 11:14:02;;;;;;;1.33;0.60;;;;;;;;;;5013922;28;20053;-84
2022/08/23 11:16:30;;;;;;;2.45;0.80;;;;;;;;;;5016162;28;20497;-83
2022/08/23 11:18:58;;;;;;;4.75;0.63;;;;;;;;;;5012349;28;20054;-82
2022/08/23 11:21:27;;;;;;;0.80;0.60;;;;;;;;;;5014909;28;20049;-84
2022/08/23 11:24:15;;;;;;;1.10;0.80;;;;;;;;;;5014704;28;20074;-83
2022/08/23 11:26:45;;;;;;;2.28;0.80;;;;;;;;;;5015083;28;20116;-84
2022/08/23 11:29:24;;;;;;;2.17;0.70;;;;;;;;;;5015945;28;20061;-83
2022/08/23 11:32:01;;;;;;;0.90;0.90;;;;;;;;;;5014480;28;20050;-82
2022/08/23 11:34:41;;;;;;;2.78;0.75;;;;;;;;;;5013890;28;20054;-82
2022/08/23 11:37:18;;;;;;;1.90;0.60;;;;;;;;;;5014276;28;20092;-83
2022/08/23 11:39:57;;;;;;;0.80;0.70;;;;;;;;;;5015326;28;20042;-83
2022/08/23 11:42:24;;;;;;;1.27;0.70;;;;;;;;;;5016051;28;20042;-83
2022/08/23 11:44:52;;;;;;;3.72;1.02;;;;;;;;;;5011226;28;20111;-83
2022/08/23 11:47:27;;;;;;;5.95;0.95;;;;;;;;;;5034583;28;20068;-81
2022/08/23 11:50:04;;;;;;;2.25;0.70;;;;;;;;;;5035096;28;20054;-82
2022/08/23 11:52:47;;;;;;;3.00;1.02;;;;;;;;;;5034311;28;20475;-82
2022/08/23 11:55:30;;;;;;;4.32;0.80;;;;;;;;;;5035420;28;20053;-82
2022/08/23 11:57:57;;;;;;;1.15;0.60;;;;;;;;;;5034029;28;20464;-82
2022/08/23 12:00:24;;;;;;;3.13;0.75;;;;;;;;;;5033643;28;20055;-82
2022/08/23 12:03:01;;;;;;;1.63;0.82;;;;;;;;;;5034431;28;20041;-81
2022/08/23 12:05:34;;;;;;;2.95;0.70;;;;;;;;;;5034952;28;20045;-83
2022/08/23 12:08:01;;;;;;;4.32;0.73;;;;;;;;;;5034038;28;20103;-81
2022/08/23 12:10:41;;;;;;;1.85;0.80;;;;;;;;;;5033959;28;20060;-82
2022/08/23 12:13:20;;;;;;;1.35;0.50;;;;;;;;;;5035336;28;20092;-82
2022/08/23 12:16:06;;;;;;;1.85;0.73;;;;;;;;;;5034933;28;20049;-83
2022/08/23 12:18:44;;;;;;;0.93;0.60;;;;;;;;;;5034560;28;20132;-80
2022/08/23 12:21:24;;;;;;;0.80;0.70;;;;;;;;;;5033784;28;20057;-81
2022/08/23 12:23:57;;;;;;;2.58;0.90;;;;;;;;;;5034033;28;20045;-80
2022/08/23 12:26:39;;;;;;;5.38;1.10;;;;;;;;;;5033580;28;20056;-83
2022/08/23 12:29:11;;;;;;;2.78;0.82;;;;;;;;;;5033338;28;20304;-82
2022/08/23 12:31:41;;;;;;;4.03;0.40;;;;;;;;;;5033959;28;20483;-82
2022/08/23 12:34:19;;;;;;;0.80;0.80;;;;;;;;;;5035015;28;20544;-82
2022/08/23 12:37:01;;;;;;;1.40;0.70;;;;;;;;;;5033388;28;20077;-83
2022/08/23 12:39:38;;;;;;;0.95;0.60;;;;;;;;;;5034379;28;20045;-82
2022/08/23 12:42:09;;;;;;;1.30;0.77;;;;;;;;;;5034392;28;20049;-83
2022/08/23 12:44:36;;;;;;;0.70;0.70;;;;;;;;;;5046342;28;20091;-81
2022/08/23 12:47:18;;;;;;;2.10;0.70;;;;;;;;;;5037975;28;20091;-82
2022/08/23 12:49:56;;;;;;;2.38;0.75;;;;;;;;;;5054432;28;20075;-81
2022/08/23 12:52:29;;;;;;;2.08;0.88;;;;;;;;;;5054624;28;20057;-82
2022/08/23 12:54:56;;;;;;;1.27;1.02;;;;;;;;;;5036243;28;20088;-82
2022/08/23 12:57:34;;;;;;;0.60;0.60;;;;;;;;;;5036910;28;20496;-83
2022/08/23 13:00:13;;;;;;;2.30;0.90;;;;;;;;;;5054125;28;20041;-82
2022/08/23 13:02:47;;;;;;;7.47;0.85;;;;;;;;;;5054380;28;20048;-83
2022/08/23 13:05:21;;;;;;;2.42;0.75;;;;;;;;;;5038175;28;20045;-81
2022/08/23 13:07:48;;;;;;;5.60;1.05;;;;;;;;;;5055030;28;20077;-82
2022/08/23 13:10:16;;;;;;;3.83;0.88;;;;;;;;;;5036197;28;20492;-81
2022/08/23 13:12:43;;;;;;;0.95;0.70;;;;;;;;;;5035937;28;20056;-82
2022/08/23 13:15:10;;;;;;;1.50;0.80;;;;;;;;;;5053974;28;20049;-81
2022/08/23 13:17:39;;;;;;;2.08;1.13;;;;;;;;;;5035890;28;20493;-83
2022/08/23 13:20:06;;;;;;;1.45;0.70;;;;;;;;;;5036137;28;20053;-82
2022/08/23 13:22:34;;;;;;;0.60;0.60;;;;;;;;;;5053436;28;20073;-82
2022/08/23 13:25:04;;;;;;;4.07;0.98;;;;;;;;;;5036175;28;20087;-81
2022/08/23 13:27:57;;;;;;;3.72;0.95;;;;;;;;;;5053363;28;20055;-82
2022/08/23 13:30:29;;;;;;;1.80;1.13;;;;;;;;;;5053659;28;20073;-81
2022/08/23 13:33:08;;;;;;;1.50;0.93;;;;;;;;;;5035729;28;20581;-81
2022/08/23 13:35:44;;;;;;;2.88;0.80;;;;;;;;;;5053271;28;20059;-83
2022/08/23 13:38:14;;;;;;;2.45;1.00;;;;;;;;;;5054114;28;20044;-81
2022/08/23 13:40:59;;;;;;;0.90;0.60;;;;;;;;;;5036931;28;20048;-82
2022/08/23 13:43:30;;;;;;;2.40;1.00;;;;;;;;;;5036665;28;20079;-83
2022/08/23 13:45:59;;;;;;;2.15;0.88;;;;;;;;;;5053972;28;20075;-82
2022/08/23 13:48:30;;;;;;;1.85;0.80;;;;;;;;;;5053546;28;20563;-81
2022/08/23 13:51:17;;;;;;;1.45;0.82;;;;;;;;;;5035487;28;20092;-81
2022/08/23 13:53:44;;;;;;;1.58;0.70;;;;;;;;;;5053588;28;20423;-84
2022/08/23 13:56:13;;;;;;;2.55;0.80;;;;;;;;;;5036090;28;20049;-80
2022/08/23 13:58:40;;;;;;;2.03;0.80;;;;;;;;;;5052935;28;20224;-81
2022/08/23 14:01:11;;;;;;;1.75;0.90;;;;;;;;;;5053246;28;20056;-81
2022/08/23 14:03:38;;;;;;;1.20;0.70;;;;;;;;;;5053039;28;20045;-83
2022/08/23 14:06:06;;;;;;;0.85;0.70;;;;;;;;;;5035849;28;20048;-81
2022/08/23 14:08:33;;;;;;;2.75;1.33;;;;;;;;;;5036795;28;20056;-81
2022/08/23 14:11:00;;;;;;;1.20;0.90;;;;;;;;;;5056757;28;20492;-81
2022/08/23 14:13:28;;;;;;;3.15;0.98;;;;;;;;;;5039959;28;20503;-80
2022/08/23 14:16:00;;;;;;;2.50;0.98;;;;;;;;;;5057154;28;20055;-81
2022/08/23 14:18:47;;;;;;;1.50;1.00;;;;;;;;;;5041882;28;20411;-82
2022/08/23 14:21:35;;;;;;;5.38;1.02;;;;;;;;;;5041768;28;20127;-81
2022/08/23 14:24:02;;;;;;;1.80;0.90;;;;;;;;;;5056995;28;20045;-82
2022/08/23 14:26:29;;;;;;;2.47;0.75;;;;;;;;;;5039483;28;20123;-82
2022/08/23 14:28:56;;;;;;;1.58;0.85;;;;;;;;;;5057347;28;20080;-80
2022/08/23 14:31:24;;;;;;;1.15;0.70;;;;;;;;;;5056614;28;20098;-81
2022/08/23 14:33:51;;;;;;;1.65;0.80;;;;;;;;;;5056910;28;20565;-81
2022/08/23 14:36:20;;;;;;;0.88;0.85;;;;;;;;;;5056503;28;20049;-82
2022/08/23 14:38:51;;;;;;;1.08;0.88;;;;;;;;;;5038913;28;20045;-82
2022/08/23 14:41:21;;;;;;;1.52;1.40;;;;;;;;;;5038905;28;20049;-81
2022/08/23 14:43:49;;;;;;;2.85;0.90;;;;;;;;;;5035132;28;20057;-83
2022/08/23 14:46:16;;;;;;;2.65;1.00;;;;;;;;;;5019165;28;20052;-83
2022/08/23 14:48:43;;;;;;;3.05;0.80;;;;;;;;;;5035479;28;20582;-82
2022/08/23 14:51:22;;;;;;;1.35;0.98;;;;;;;;;;5036552;28;20432;-82
2022/08/23 14:53:49;;;;;;;0.90;0.90;;;;;;;;;;5035123;28;20481;-81
2022/08/23 14:56:16;;;;;;;1.98;1.00;;;;;;;;;;5035270;28;20049;-83
2022/08/23 14:58:48;;;;;;;4.20;1.30;;;;;;;;;;5034476;28;20512;-82
2022/08/23 15:01:16;;;;;;;2.17;1.15;;;;;;;;;;5036020;28;20085;-82
2022/08/23 15:03:43;;;;;;;2.35;1.20;;;;;;;;;;5036549;28;20045;-82
2022/08/23 15:06:12;;;;;;;3.70;1.15;;;;;;;;;;5034859;28;20072;-82
2022/08/23 15:08:39;;;;;;;1.20;0.90;;;;;;;;;;5034353;28;20084;-82
2022/08/23 15:11:07;;;;;;;6.07;1.65;;;;;;;;;;5036282;28;20053;-82
2022/08/23 15:13:55;;;;;;;2.38;1.02;;;;;;;;;;5035578;28;20085;-82
2022/08/23 15:16:26;;;;;;;3.08;1.17;;;;;;;;;;5034345;28;20046;-82
2022/08/23 15:18:54;;;;;;;5.38;1.10;;;;;;;;;;5035487;28;20060;-82
2022/08/23 15:21:21;;;;;;;0.90;0.90;;;;;;;;;;5034740;28;20484;-81
2022/08/23 15:23:49;;;;;;;2.03;1.23;;;;;;;;;;5035645;28;20045;-83
2022/08/23 15:26:18;;;;;;;1.83;1.20;;;;;;;;;;5035478;28;20069;-81
2022/08/23 15:28:45;;;;;;;2.53;0.95;;;;;;;;;;5035724;28;20072;-83
2022/08/23 15:31:14;;;;;;;1.10;1.00;;;;;;;;;;5034396;28;20497;-81
2022/08/23 15:33:41;;;;;;;3.25;1.23;;;;;;;;;;5035958;28;20500;-83
2022/08/23 15:36:10;;;;;;;1.58;1.05;;;;;;;;;;5035417;28;20195;-82
2022/08/23 15:38:37;;;;;;;1.20;1.10;;;;;;;;;;5035014;28;20081;-83
2022/08/23 15:41:04;;;;;;;1.08;0.98;;;;;;;;;;5035965;28;20049;-82
2022/08/23 15:43:33;;;;;;;1.67;1.15;;;;;;;;;;5036815;28;20081;-81
2022/08/23 15:46:08;;;;;;;1.65;1.10;;;;;;;;;;5037694;28;20553;-83
2022/08/23 15:48:37;;;;;;;2.85;1.50;;;;;;;;;;5055076;28;20151;-83
2022/08/23 15:51:05;;;;;;;1.30;1.20;;;;;;;;;;5037631;28;20084;-81
2022/08/23 15:53:32;;;;;;;1.30;1.20;;;;;;;;;;5038388;28;20072;-82
2022/08/23 15:56:00;;;;;;;1.88;1.15;;;;;;;;;;5055131;28;20072;-82
2022/08/23 15:58:31;;;;;;;3.15;1.30;;;;;;;;;;5037721;28;20049;-82
2022/08/23 16:00:58;;;;;;;3.05;1.25;;;;;;;;;;5054734;28;20465;-83
2022/08/23 16:03:26;;;;;;;2.60;1.20;;;;;;;;;;5054865;28;20044;-83
2022/08/23 16:05:53;;;;;;;5.28;1.33;;;;;;;;;;5054867;28;20053;-83
2022/08/23 16:08:25;;;;;;;2.58;1.17;;;;;;;;;;5037102;28;20069;-81
2022/08/23 16:10:53;;;;;;;2.22;1.25;;;;;;;;;;5037509;28;20056;-82
2022/08/23 16:13:20;;;;;;;4.60;1.20;;;;;;;;;;5054981;28;20060;-81
2022/08/23 16:15:47;;;;;;;3.95;1.30;;;;;;;;;;5037010;28;20415;-83
2022/08/23 16:18:15;;;;;;;1.15;1.10;;;;;;;;;;5036754;28;20076;-81
2022/08/23 16:20:42;;;;;;;5.13;1.77;;;;;;;;;;5054614;28;20044;-83
2022/08/23 16:23:10;;;;;;;2.25;1.30;;;;;;;;;;5054945;28;20049;-84
2022/08/23 16:25:37;;;;;;;2.95;1.30;;;;;;;;;;5036945;28;20076;-82
2022/08/23 16:28:04;;;;;;;1.30;1.20;;;;;;;;;;5055235;28;20530;-82
2022/08/23 16:30:31;;;;;;;8.60;1.30;;;;;;;;;;5054152;28;20095;-81
2022/08/23 16:32:59;;;;;;;3.25;1.20;;;;;;;;;;5054958;28;20051;-82
2022/08/23 16:35:26;;;;;;;2.17;1.23;;;;;;;;;;5054030;28;20053;-83
2022/08/23 16:37:53;;;;;;;4.18;1.40;;;;;;;;;;5036797;28;20081;-83
2022/08/23 16:40:21;;;;;;;5.45;1.50;;;;;;;;;;5036414;28;20041;-83
2022/08/23 16:42:48;;;;;;;1.77;1.17;;;;;;;;;;5036626;28;20583;-82
2022/08/23 16:45:15;;;;;;;1.60;1.00;;;;;;;;;;5036017;28;20084;-84
2022/08/23 16:47:52;;;;;;;1.77;1.20;;;;;;;;;;5038388;28;20045;-82
2022/08/23 16:50:19;;;;;;;2.55;1.25;;;;;;;;;;5036820;28;20061;-81
2022/08/23 16:52:46;;;;;;;3.63;1.20;;;;;;;;;;5054696;28;20064;-82
2022/08/23 16:55:13;;;;;;;1.30;1.20;;;;;;;;;;5054444;28;20072;-82
2022/08/23 16:57:40;;;;;;;1.95;1.20;;;;;;;;;;5054250;28;20092;-82
2022/08/23 17:00:11;;;;;;;2.78;1.27;;;;;;;;;;5036597;28;20536;-83
2022/08/23 17:02:39;;;;;;;1.60;1.10;;;;;;;;;;5054523;28;20049;-82
2022/08/23 17:05:08;;;;;;;1.60;1.50;;;;;;;;;;5054231;28;20521;-80
2022/08/23 17:07:35;;;;;;;1.50;1.40;;;;;;;;;;5036375;28;20091;-82
2022/08/23 17:10:03;;;;;;;4.90;1.00;;;;;;;;;;5053774;28;20084;-82
2022/08/23 17:12:31;;;;;;;2.35;1.20;;;;;;;;;;5036473;28;20052;-83
2022/08/23 17:14:58;;;;;;;3.90;1.08;;;;;;;;;;5054892;28;20045;-82
2022/08/23 17:17:25;;;;;;;4.70;1.33;;;;;;;;;;5054811;28;20097;-82
2022/08/23 17:19:52;;;;;;;7.55;1.48;;;;;;;;;;5036560;28;20068;-82
2022/08/23 17:22:19;;;;;;;9.75;1.30;;;;;;;;;;5036605;28;20499;-83
2022/08/23 17:24:46;;;;;;;7.93;1.75;;;;;;;;;;5054057;28;20041;-82
2022/08/23 17:27:19;;;;;;;3.85;1.77;;;;;;;;;;5037054;28;20082;-82
2022/08/23 17:29:46;;;;;;;5.85;2.17;;;;;;;;;;5054150;28;20053;-81
2022/08/23 17:32:13;;;;;;;4.40;1.20;;;;;;;;;;5036806;28;20102;-82
2022/08/23 17:34:40;;;;;;;5.05;1.58;;;;;;;;;;5052934;28;20499;-82
2022/08/23 17:37:19;;;;;;;9.35;1.65;;;;;;;;;;5034954;28;20106;-81
2022/08/23 17:39:48;;;;;;;4.55;1.67;;;;;;;;;;5034986;28;20080;-82
2022/08/23 17:42:16;;;;;;;11.30;1.70;;;;;;;;;;5035292;28;20049;-82
2022/08/23 17:44:43;;;;;;;11.82;2.28;;;;;;;;;;5040341;28;20045;-82
2022/08/23 17:47:16;;;;;;;7.78;1.70;;;;;;;;;;5057984;28;20076;-82
2022/08/23 17:49:44;;;;;;;8.82;1.77;;;;;;;;;;5057976;28;20049;-82
2022/08/23 17:52:12;;;;;;;6.50;2.05;;;;;;;;;;5040104;28;20053;-83
2022/08/23 17:54:39;;;;;;;7.80;1.92;;;;;;;;;;5040379;28;20076;-83
2022/08/23 17:57:07;;;;;;;5.35;1.65;;;;;;;;;;5058232;28;20076;-83
2022/08/23 17:59:35;;;;;;;4.90;1.27;;;;;;;;;;5040912;28;20091;-83
2022/08/23 18:02:03;;;;;;;2.80;1.40;;;;;;;;;;5043402;28;20068;-82
2022/08/23 18:04:30;;;;;;;5.75;1.83;;;;;;;;;;5041733;28;20396;-83
2022/08/23 18:06:59;;;;;;;4.95;1.80;;;;;;;;;;5041984;28;20051;-83
2022/08/23 18:09:26;;;;;;;4.40;1.90;;;;;;;;;;5058604;28;20049;-83
2022/08/23 18:11:53;;;;;;;6.40;1.92;;;;;;;;;;5059322;28;20470;-84
2022/08/23 18:14:22;;;;;;;4.55;2.10;;;;;;;;;;5043821;28;20049;-84
2022/08/23 18:16:50;;;;;;;8.32;2.00;;;;;;;;;;5042744;28;20053;-83
2022/08/23 18:19:17;;;;;;;3.90;2.20;;;;;;;;;;5043163;28;20045;-84
2022/08/23 18:21:45;;;;;;;3.72;2.25;;;;;;;;;;5042256;28;20045;-83
2022/08/23 18:24:13;;;;;;;5.10;2.05;;;;;;;;;;5042556;28;20049;-84
2022/08/23 18:29:27;;;;;;;4.10;2.38;;;;;;;;;;5060621;28;20053;-83
2022/08/23 18:31:55;;;;;;;2.97;2.00;;;;;;;;;;5060583;28;20057;-83
2022/08/23 18:34:22;;;;;;;3.03;2.17;;;;;;;;;;5042425;28;20515;-83
2022/08/23 18:36:50;;;;;;;10.23;2.50;;;;;;;;;;5060020;28;20053;-83
2022/08/23 18:39:17;;;;;;;5.32;2.33;;;;;;;;;;5041276;28;20091;-83
2022/08/23 18:41:59;;;;;;;5.93;2.45;;;;;;;;;;5043275;28;20052;-83
2022/08/23 18:44:26;;;;;;;11.75;3.15;;;;;;;;;;5059563;28;20080;-83
2022/08/23 18:46:53;;;;;;;7.20;3.05;;;;;;;;;;5059256;28;20056;-83
2022/08/23 18:49:20;;;;;;;7.50;2.33;;;;;;;;;;5058853;28;20103;-84
2022/08/23 18:51:47;;;;;;;19.63;4.03;;;;;;;;;;5059034;28;20041;-83
2022/08/23 18:54:15;;;;;;;20.05;3.60;;;;;;;;;;5040487;28;20087;-83
2022/08/23 18:56:42;;;;;;;7.35;2.55;;;;;;;;;;5058273;28;20079;-83
2022/08/23 18:59:09;;;;;;;5.35;2.78;;;;;;;;;;5040593;28;20401;-83
2022/08/23 19:01:39;;;;;;;4.55;2.85;;;;;;;;;;5057960;28;20492;-82
2022/08/23 19:04:08;;;;;;;4.43;2.60;;;;;;;;;;5039981;28;20476;-83
2022/08/23 19:06:35;;;;;;;11.30;2.67;;;;;;;;;;5057553;28;20056;-82
2022/08/23 19:09:04;;;;;;;6.43;2.75;;;;;;;;;;5057878;28;20068;-83
2022/08/23 19:11:32;;;;;;;8.40;2.92;;;;;;;;;;5057620;28;20053;-83
2022/08/23 19:14:00;;;;;;;9.73;2.53;;;;;;;;;;5056373;28;20076;-82
2022/08/23 19:16:29;;;;;;;3.90;2.40;;;;;;;;;;5037324;28;20110;-81
2022/08/23 19:18:56;;;;;;;2.90;2.42;;;;;;;;;;5054767;28;20045;-81
2022/08/23 19:21:25;;;;;;;2.70;2.40;;;;;;;;;;5054878;28;20049;-81
2022/08/23 19:23:54;;;;;;;2.95;2.30;;;;;;;;;;5037338;28;20090;-82
2022/08/23 19:26:24;;;;;;;6.30;2.92;;;;;;;;;;5037191;28;20049;-82
2022/08/23 19:28:52;;;;;;;3.40;2.80;;;;;;;;;;5037350;28;20056;-82
2022/08/23 19:31:19;;;;;;;4.95;3.30;;;;;;;;;;5037203;28;20049;-82
2022/08/23 19:33:46;;;;;;;4.55;2.72;;;;;;;;;;5054899;28;20124;-81
2022/08/23 19:36:13;;;;;;;3.42;3.03;;;;;;;;;;5037242;28;20045;-81
2022/08/23 19:39:00;;;;;;;5.05;3.60;;;;;;;;;;5055720;28;20049;-83
2022/08/23 19:41:28;;;;;;;6.97;3.03;;;;;;;;;;5037802;28;20087;-82
2022/08/23 19:43:55;;;;;;;3.20;3.00;;;;;;;;;;5037418;28;20068;-82
2022/08/23 19:46:22;;;;;;;5.90;3.17;;;;;;;;;;5055748;28;20049;-82
2022/08/23 19:48:50;;;;;;;4.30;2.88;;;;;;;;;;5055364;28;20107;-82
2022/08/23 19:51:18;;;;;;;3.15;2.85;;;;;;;;;;5037420;28;20140;-82
2022/08/23 19:54:04;;;;;;;4.00;2.53;;;;;;;;;;5054847;28;20045;-83
2022/08/23 19:57:08;;;;;;;2.83;2.60;;;;;;;;;;5059832;28;20547;-82
2022/08/23 19:59:40;;;;;;;3.83;3.00;;;;;;;;;;5039067;28;20045;-82
2022/08/23 20:02:08;;;;;;;6.68;3.50;;;;;;;;;;5055153;28;20068;-81
2022/08/23 20:04:35;;;;;;;3.28;2.97;;;;;;;;;;5037311;28;20080;-82
2022/08/23 20:07:04;;;;;;;6.72;3.58;;;;;;;;;;5036266;28;20045;-81
2022/08/23 20:09:31;;;;;;;5.97;3.25;;;;;;;;;;5037352;28;20115;-81
2022/08/23 20:11:59;;;;;;;7.60;3.80;;;;;;;;;;5057203;28;20052;-82
2022/08/23 20:14:27;;;;;;;4.15;3.45;;;;;;;;;;5037886;28;20094;-81
2022/08/23 20:16:55;;;;;;;4.32;3.13;;;;;;;;;;5037513;28;20114;-82
2022/08/23 20:19:22;;;;;;;3.65;3.35;;;;;;;;;;5054914;28;20084;-82
2022/08/23 20:21:50;;;;;;;4.75;3.28;;;;;;;;;;5054955;28;20094;-82
2022/08/23 20:24:17;;;;;;;4.28;3.30;;;;;;;;;;5036795;28;20439;-82
2022/08/23 20:27:04;;;;;;;6.70;3.38;;;;;;;;;;5054992;28;20044;-82
2022/08/23 20:29:31;;;;;;;3.90;3.03;;;;;;;;;;5054318;28;20091;-81
2022/08/23 20:31:59;;;;;;;3.05;2.83;;;;;;;;;;5036680;28;20122;-81
2022/08/23 20:34:26;;;;;;;3.92;3.63;;;;;;;;;;5054476;28;20064;-81
2022/08/23 20:36:54;;;;;;;4.05;3.30;;;;;;;;;;5054563;28;20049;-82
2022/08/23 20:39:22;;;;;;;4.55;3.78;;;;;;;;;;5036410;28;20091;-82
2022/08/23 20:41:51;;;;;;;4.28;3.75;;;;;;;;;;5054387;28;20518;-81
2022/08/23 20:44:19;;;;;;;6.32;3.78;;;;;;;;;;5053784;28;20060;-82
2022/08/23 20:46:46;;;;;;;5.18;3.78;;;;;;;;;;5054056;28;20052;-82
2022/08/23 20:49:19;;;;;;;4.72;3.60;;;;;;;;;;5037024;28;20056;-82
2022/08/23 20:51:47;;;;;;;5.18;3.63;;;;;;;;;;5036169;28;20049;-81
2022/08/23 20:54:16;;;;;;;4.32;4.03;;;;;;;;;;5036677;28;20127;-81
2022/08/23 20:56:43;;;;;;;9.68;3.85;;;;;;;;;;5053121;28;20103;-81
2022/08/23 20:59:11;;;;;;;4.57;4.00;;;;;;;;;;5035086;28;20084;-81
2022/08/23 21:01:39;;;;;;;6.85;3.78;;;;;;;;;;5052777;28;20044;-81
2022/08/23 21:04:06;;;;;;;4.72;4.25;;;;;;;;;;5035212;28;20470;-81
2022/08/23 21:06:40;;;;;;;6.53;3.88;;;;;;;;;;5035238;28;20045;-81
2022/08/23 21:09:15;;;;;;;5.95;4.32;;;;;;;;;;5035728;28;20053;-81
2022/08/23 21:11:42;;;;;;;7.57;4.85;;;;;;;;;;5052791;28;20076;-81
2022/08/23 21:14:09;;;;;;;5.15;4.57;;;;;;;;;;5035163;28;20049;-82
2022/08/23 21:16:37;;;;;;;6.30;3.88;;;;;;;;;;5034948;28;20126;-81
2022/08/23 21:19:04;;;;;;;4.97;4.25;;;;;;;;;;5035102;28;20492;-82
2022/08/23 21:21:32;;;;;;;4.82;4.15;;;;;;;;;;5035179;28;20044;-80
2022/08/23 21:23:59;;;;;;;5.25;4.13;;;;;;;;;;5035012;28;20095;-81
2022/08/23 21:26:26;;;;;;;4.80;4.38;;;;;;;;;;5034779;28;20461;-81
2022/08/23 21:28:53;;;;;;;6.57;4.70;;;;;;;;;;5035104;28;20092;-81
2022/08/23 21:31:21;;;;;;;5.43;4.60;;;;;;;;;;5052874;28;20044;-82
2022/08/23 21:33:49;;;;;;;5.25;4.72;;;;;;;;;;5036538;28;20049;-82
2022/08/23 21:36:17;;;;;;;7.30;4.15;;;;;;;;;;5061136;28;20048;-82
2022/08/23 21:38:45;;;;;;;5.43;4.93;;;;;;;;;;5041161;28;20118;-81
2022/08/23 21:41:27;;;;;;;4.65;4.30;;;;;;;;;;5055989;28;20435;-82
2022/08/23 21:43:54;;;;;;;4.60;4.30;;;;;;;;;;5037243;28;20546;-82
2022/08/23 21:46:21;;;;;;;5.07;4.60;;;;;;;;;;5039029;28;20067;-83
2022/08/23 21:48:48;;;;;;;6.90;5.25;;;;;;;;;;5036896;28;20045;-83
2022/08/23 21:51:15;;;;;;;7.05;5.22;;;;;;;;;;5055797;28;20539;-82
2022/08/23 21:53:42;;;;;;;5.45;4.95;;;;;;;;;;5038232;28;20539;-83
2022/08/23 21:56:09;;;;;;;5.15;4.65;;;;;;;;;;5055837;28;20491;-81
2022/08/23 21:58:37;;;;;;;5.70;5.18;;;;;;;;;;5037278;28;20481;-83
2022/08/23 22:01:05;;;;;;;5.80;5.30;;;;;;;;;;5037514;28;20049;-82
2022/08/23 22:03:34;;;;;;;6.63;5.88;;;;;;;;;;5054747;28;20053;-82
2022/08/23 22:06:02;;;;;;;6.28;5.72;;;;;;;;;;5054918;28;20091;-82
2022/08/23 22:08:29;;;;;;;11.65;6.72;;;;;;;;;;5037217;28;20514;-82
2022/08/23 22:10:58;;;;;;;5.65;5.25;;;;;;;;;;5054803;28;20053;-82
2022/08/23 22:13:27;;;;;;;5.95;5.50;;;;;;;;;;5037147;28;20581;-83
2022/08/23 22:15:55;;;;;;;8.48;5.68;;;;;;;;;;5036999;28;20128;-82
2022/08/23 22:18:22;;;;;;;11.27;5.53;;;;;;;;;;5056825;28;20118;-81
2022/08/23 22:20:49;;;;;;;7.95;5.80;;;;;;;;;;5037669;28;20049;-82
2022/08/23 22:23:16;;;;;;;6.30;5.47;;;;;;;;;;5037970;28;20049;-82
2022/08/23 22:25:43;;;;;;;8.40;5.88;;;;;;;;;;5037646;28;20041;-82
2022/08/23 22:28:11;;;;;;;6.22;5.05;;;;;;;;;;5036637;28;20553;-82
2022/08/23 22:30:38;;;;;;;5.68;5.25;;;;;;;;;;5058575;28;20045;-82
2022/08/23 22:33:05;;;;;;;6.53;5.50;;;;;;;;;;5040368;28;20049;-82
2022/08/23 22:35:33;;;;;;;9.43;5.53;;;;;;;;;;5056936;28;20052;-81
2022/08/23 22:38:02;;;;;;;6.03;5.47;;;;;;;;;;5055521;28;20049;-81
2022/08/23 22:40:46;;;;;;;8.90;5.47;;;;;;;;;;5039496;28;20049;-81
2022/08/23 22:43:13;;;;;;;5.97;5.28;;;;;;;;;;5037664;28;20048;-80
2022/08/23 22:45:49;;;;;;;6.47;5.97;;;;;;;;;;5037597;28;20470;-81
2022/08/23 22:48:17;;;;;;;7.30;6.43;;;;;;;;;;5081283;22;20053;-81
2022/08/23 22:50:45;;;;;;;8.10;6.57;;;;;;;;;;5039134;28;20053;-81
2022/08/23 22:53:12;;;;;;;7.47;6.10;;;;;;;;;;5056244;28;20512;-80
2022/08/23 22:55:40;;;;;;;6.50;6.00;;;;;;;;;;5038362;28;20083;-81
2022/08/23 22:58:08;;;;;;;6.60;5.88;;;;;;;;;;5038290;28;20453;-81
2022/08/23 23:00:40;;;;;;;6.38;5.88;;;;;;;;;;5038246;28;20111;-81
2022/08/23 23:03:07;;;;;;;6.47;5.80;;;;;;;;;;5055591;28;20496;-81
2022/08/23 23:05:36;;;;;;;6.78;5.93;;;;;;;;;;5055500;28;20068;-81
2022/08/23 23:10:50;;;;;;;7.50;6.28;;;;;;;;;;5055514;28;20052;-81
2022/08/23 23:13:17;;;;;;;6.40;5.90;;;;;;;;;;5055549;28;20431;-80
2022/08/23 23:15:44;;;;;;;6.68;5.97;;;;;;;;;;5038094;28;20056;-81
2022/08/23 23:18:11;;;;;;;7.82;6.45;;;;;;;;;;5038206;28;20053;-81
2022/08/23 23:20:39;;;;;;;6.90;6.30;;;;;;;;;;5037730;28;20049;-81
2022/08/23 23:23:07;;;;;;;8.90;7.15;;;;;;;;;;5037806;28;20523;-81
2022/08/23 23:25:35;;;;;;;6.85;6.35;;;;;;;;;;5037546;28;20060;-81
2022/08/23 23:28:03;;;;;;;7.53;6.70;;;;;;;;;;5055249;28;20083;-81
2022/08/23 23:30:32;;;;;;;7.47;6.88;;;;;;;;;;5037685;28;20431;-81
2022/08/23 23:33:00;;;;;;;7.20;6.60;;;;;;;;;;5050057;28;20049;-81
2022/08/23 23:35:27;;;;;;;8.43;7.53;;;;;;;;;;5058675;28;20075;-81
2022/08/23 23:37:55;;;;;;;7.55;6.80;;;;;;;;;;5056584;28;20052;-81
2022/08/23 23:40:24;;;;;;;6.85;6.10;;;;;;;;;;5041953;28;20041;-81
2022/08/23 23:42:52;;;;;;;8.18;7.43;;;;;;;;;;5058524;28;20048;-82
2022/08/23 23:45:19;;;;;;;9.45;6.75;;;;;;;;;;5057883;28;20423;-82
2022/08/23 23:47:46;;;;;;;9.32;6.28;;;;;;;;;;5040397;28;20067;-81
2022/08/23 23:50:14;;;;;;;9.10;7.22;;;;;;;;;;5057128;28;20518;-81
2022/08/23 23:52:41;;;;;;;9.65;6.40;;;;;;;;;;5056843;28;20049;-81
2022/08/23 23:55:10;;;;;;;7.43;6.80;;;;;;;;;;5056580;28;20049;-81
2022/08/23 23:57:37;;;;;;;7.43;6.68;;;;;;;;;;5038896;28;20079;-81
